< < Back
Terminal Aerodrome Forecast


Current Version              Previous Versions:   1  2  3  4  5  6  7  8  9  

Terminal Aerodrome Forecast

777
FTUS44 KOHX 281700
TAFCSV
TAF
KCSV 281731Z 2818/2918 34010KT P6SM SKC
     FM290000 VRB02KT P6SM SCT250
     FM291400 16008G15KT P6SM SCT250=

Latest METAR

486
SAUS70 KWBC 292200 RRR
MTRCSV
METAR KCSV 292153Z AUTO 18012G18KT 10SM CLR 13/M08 A3015 RMK AO2 SLP214
T01331078 $


USA.gov is the U.S. government's official web portal to all federal, state and local government web resources and services.